Time;durP1;ratioP1;P1;durP2;ratioP2;P2;SDS_P1;SDS_P2;PMS_P1;PMS_P2;Temp;Humidity;BMP_temperature;BMP_pressure;BME280_temperature;BME280_humidity;BME280_pressure;Samples;Min_cycle;Max_cycle;Signal;HPM_P1;HPM_P2
2022/05/26 00:00:27;;;;;;;0.20;0.20;;;16.80;99.90;;;;;;5055461;28;20261;-81
2022/05/26 00:02:53;;;;;;;0.30;0.20;;;16.70;99.90;;;;;;5036970;28;20296;-81
2022/05/26 00:05:19;;;;;;;0.27;0.27;;;16.70;99.90;;;;;;5055021;28;20190;-81
2022/05/26 00:07:44;;;;;;;0.27;0.20;;;16.70;99.90;;;;;;5052137;28;20243;-81
2022/05/26 00:10:10;;;;;;;0.13;0.13;;;16.70;99.90;;;;;;5052309;28;20709;-81
2022/05/26 00:12:35;;;;;;;0.17;0.17;;;16.60;99.90;;;;;;5052279;28;20281;-81
2022/05/26 00:15:02;;;;;;;0.20;0.20;;;16.60;99.90;;;;;;5035814;28;20517;-81
2022/05/26 00:17:28;;;;;;;0.33;0.23;;;16.60;99.90;;;;;;5035053;28;20751;-81
2022/05/26 00:19:54;;;;;;;0.10;0.10;;;16.50;99.90;;;;;;5034978;28;20565;-80
2022/05/26 00:22:20;;;;;;;0.10;0.10;;;16.50;99.90;;;;;;5051585;28;20224;-81
2022/05/26 00:24:46;;;;;;;0.27;0.23;;;16.60;99.90;;;;;;5058646;28;20181;-81
2022/05/26 00:27:12;;;;;;;0.10;0.10;;;16.60;99.90;;;;;;5037561;28;20205;-81
2022/05/26 00:29:38;;;;;;;0.37;0.20;;;16.50;99.90;;;;;;5039534;28;20279;-81
2022/05/26 00:32:04;;;;;;;0.10;0.10;;;16.50;99.90;;;;;;5057319;28;20196;-81
2022/05/26 00:34:30;;;;;;;0.10;0.10;;;16.50;99.90;;;;;;5074513;28;20189;-81
2022/05/26 00:36:55;;;;;;;0.30;0.30;;;16.50;99.90;;;;;;5040052;28;20208;-81
2022/05/26 00:39:23;;;;;;;0.53;0.37;;;16.50;99.90;;;;;;5056174;28;20606;-81
2022/05/26 00:41:56;;;;;;;0.10;0.10;;;16.50;99.90;;;;;;5039123;28;20331;-81
2022/05/26 00:44:22;;;;;;;0.27;0.27;;;16.50;99.90;;;;;;5034600;28;20603;-81
2022/05/26 00:47:01;;;;;;;0.20;0.20;;;16.50;99.90;;;;;;5058283;28;20209;-81
2022/05/26 00:49:29;;;;;;;0.20;0.20;;;16.40;99.90;;;;;;5038686;28;20600;-81
2022/05/26 00:51:55;;;;;;;0.30;0.30;;;16.40;99.90;;;;;;5043233;28;20182;-81
2022/05/26 00:54:24;;;;;;;0.20;0.20;;;16.40;99.90;;;;;;5037106;28;20196;-81
2022/05/26 00:57:05;;;;;;;0.10;0.10;;;16.40;99.90;;;;;;5039072;28;20193;-81
2022/05/26 01:00:05;;;;;;;0.10;0.10;;;16.40;99.90;;;;;;5037306;28;20189;-81
2022/05/26 01:02:37;;;;;;;0.30;0.30;;;16.40;99.90;;;;;;5055813;28;20678;-81
2022/05/26 01:05:13;;;;;;;0.20;0.20;;;16.30;99.90;;;;;;5059299;28;20188;-81
2022/05/26 01:07:40;;;;;;;0.37;0.37;;;16.30;99.90;;;;;;5056523;28;20713;-81
2022/05/26 01:10:08;;;;;;;0.20;0.20;;;16.20;99.90;;;;;;5070830;28;20281;-81
2022/05/26 01:12:34;;;;;;;0.10;0.10;;;16.20;99.90;;;;;;5037403;28;21196;-81
2022/05/26 01:15:06;;;;;;;0.20;0.20;;;16.20;99.90;;;;;;5034858;28;20189;-81
2022/05/26 01:17:49;;;;;;;0.50;0.50;;;16.20;99.90;;;;;;5039958;28;20209;-81
2022/05/26 01:20:56;;;;;;;0.27;0.27;;;16.30;99.90;;;;;;5056787;28;20185;-81
2022/05/26 01:23:50;;;;;;;0.30;0.30;;;16.30;99.90;;;;;;5070535;28;20197;-81
2022/05/26 01:26:45;;;;;;;1.30;0.23;;;16.40;99.90;;;;;;5039425;28;20217;-82
2022/05/26 01:29:25;;;;;;;0.10;0.10;;;16.40;99.90;;;;;;5052661;28;20195;-81
2022/05/26 01:32:09;;;;;;;0.30;0.30;;;16.50;99.90;;;;;;5071316;28;20255;-81
2022/05/26 01:35:12;;;;;;;0.10;0.10;;;16.50;99.90;;;;;;5038507;28;20657;-82
2022/05/26 01:37:49;;;;;;;0.10;0.10;;;16.50;99.90;;;;;;4997802;28;21782;-82
2022/05/26 01:40:40;;;;;;;0.10;0.10;;;16.50;99.90;;;;;;5052148;28;20720;-80
2022/05/26 01:43:11;;;;;;;0.20;0.20;;;16.50;99.90;;;;;;5053985;28;20252;-81
2022/05/26 01:45:54;;;;;;;0.20;0.20;;;16.60;99.90;;;;;;5055822;28;20181;-81
2022/05/26 01:48:47;;;;;;;0.20;0.20;;;16.60;99.90;;;;;;5056439;28;20206;-81
2022/05/26 01:51:33;;;;;;;0.17;0.17;;;16.60;99.90;;;;;;5053995;28;20225;-81
2022/05/26 01:54:22;;;;;;;0.10;0.10;;;16.60;99.90;;;;;;5037779;28;20199;-81
2022/05/26 01:57:09;;;;;;;0.20;0.20;;;16.60;99.90;;;;;;5055323;28;20185;-81
2022/05/26 01:59:40;;;;;;;0.10;0.10;;;16.60;99.90;;;;;;5071366;28;20264;-81
2022/05/26 02:02:13;;;;;;;0.07;0.07;;;16.50;99.90;;;;;;5038041;28;20208;-81
2022/05/26 02:04:53;;;;;;;0.10;0.10;;;16.50;99.90;;;;;;5038817;28;20181;-81
2022/05/26 02:07:33;;;;;;;0.10;0.10;;;16.60;99.90;;;;;;5037156;28;20204;-81
2022/05/26 02:10:03;;;;;;;0.40;0.40;;;16.40;99.90;;;;;;5054517;28;20197;-82
2022/05/26 02:12:37;;;;;;;0.20;0.20;;;16.40;99.90;;;;;;5054539;28;20189;-82
2022/05/26 02:15:16;;;;;;;0.10;0.10;;;16.50;99.90;;;;;;5055799;28;20193;-81
2022/05/26 02:17:51;;;;;;;0.10;0.10;;;16.50;99.90;;;;;;5036284;28;20254;-81
2022/05/26 02:20:28;;;;;;;0.17;0.17;;;16.40;99.90;;;;;;5074138;28;20277;-81
2022/05/26 02:22:58;;;;;;;0.10;0.10;;;16.30;99.90;;;;;;5036133;28;20212;-81
2022/05/26 02:25:26;;;;;;;0.20;0.20;;;16.20;99.90;;;;;;5035452;28;20276;-81
2022/05/26 02:27:57;;;;;;;0.10;0.10;;;16.10;99.90;;;;;;5052684;28;20617;-81
2022/05/26 02:30:30;;;;;;;0.10;0.10;;;16.00;99.90;;;;;;5054477;28;20206;-81
2022/05/26 02:32:58;;;;;;;0.30;0.30;;;16.00;99.90;;;;;;5036994;28;20180;-81
2022/05/26 02:35:28;;;;;;;0.17;0.17;;;15.80;99.90;;;;;;5054581;28;20189;-81
2022/05/26 02:37:58;;;;;;;0.10;0.10;;;15.70;99.90;;;;;;5036066;28;20194;-81
2022/05/26 02:40:24;;;;;;;0.10;0.10;;;15.70;99.90;;;;;;5035587;28;20177;-81
2022/05/26 02:42:54;;;;;;;0.30;0.10;;;15.60;99.90;;;;;;5037348;28;20213;-81
2022/05/26 02:45:41;;;;;;;0.20;0.20;;;15.50;99.90;;;;;;5055202;28;20271;-81
2022/05/26 02:48:32;;;;;;;0.20;0.20;;;15.40;99.90;;;;;;5056070;28;20263;-81
2022/05/26 02:51:26;;;;;;;0.10;0.10;;;15.30;99.90;;;;;;5053927;28;20187;-81
2022/05/26 02:54:09;;;;;;;2.53;0.10;;;15.30;99.90;;;;;;5000491;28;20227;-81
2022/05/26 02:56:57;;;;;;;0.07;0.07;;;15.20;99.90;;;;;;5051323;28;20205;-81
2022/05/26 02:59:45;;;;;;;0.27;0.27;;;15.10;99.90;;;;;;5055759;28;20688;-81
2022/05/26 03:02:31;;;;;;;0.27;0.27;;;15.00;99.90;;;;;;5037748;28;20242;-81
2022/05/26 03:05:21;;;;;;;0.20;0.20;;;15.00;99.90;;;;;;5054095;28;20194;-81
2022/05/26 03:07:52;;;;;;;0.10;0.10;;;15.00;99.90;;;;;;5053186;28;20283;-81
2022/05/26 03:10:22;;;;;;;3.50;0.60;;;14.90;99.90;;;;;;5036830;28;20663;-81
2022/05/26 03:12:47;;;;;;;0.30;0.30;;;14.90;99.90;;;;;;5035255;28;20212;-81
2022/05/26 03:15:13;;;;;;;0.17;0.17;;;14.80;99.90;;;;;;5038474;28;20216;-81
2022/05/26 03:17:38;;;;;;;0.53;0.30;;;14.80;99.90;;;;;;5035726;28;20329;-81
2022/05/26 03:20:05;;;;;;;0.93;0.93;;;14.80;99.90;;;;;;5036503;28;20193;-81
2022/05/26 03:22:30;;;;;;;0.13;0.13;;;14.80;99.90;;;;;;5037471;28;20227;-81
2022/05/26 03:24:56;;;;;;;0.40;0.40;;;14.80;99.90;;;;;;5035877;28;20215;-81
2022/05/26 03:27:21;;;;;;;0.20;0.20;;;14.80;99.90;;;;;;5038729;28;20213;-81
2022/05/26 03:29:47;;;;;;;0.10;0.10;;;14.80;99.90;;;;;;5036438;28;20199;-81
2022/05/26 03:32:12;;;;;;;0.10;0.10;;;14.70;99.90;;;;;;5038178;28;20553;-80
2022/05/26 03:42:52;;;;;;;1.30;0.60;;;14.70;99.90;;;;;;5057180;28;20211;-81
2022/05/26 03:45:22;;;;;;;0.20;0.20;;;14.70;99.90;;;;;;5055696;28;20193;-80
2022/05/26 03:47:48;;;;;;;0.20;0.20;;;15.60;99.90;;;;;;5036595;28;20278;-81
2022/05/26 03:50:14;;;;;;;0.20;0.20;;;16.50;99.90;;;;;;5070447;28;20271;-81
2022/05/26 03:52:39;;;;;;;0.20;0.20;;;16.60;99.90;;;;;;5056055;28;20193;-81
2022/05/26 03:55:05;;;;;;;1.00;0.70;;;15.80;99.90;;;;;;5055600;28;20193;-81
2022/05/26 03:57:31;;;;;;;0.23;0.23;;;15.40;99.90;;;;;;5057503;28;20212;-81
2022/05/26 03:59:58;;;;;;;0.13;0.13;;;15.20;99.90;;;;;;5041129;28;20195;-84
2022/05/26 04:02:24;;;;;;;0.17;0.17;;;15.00;99.90;;;;;;5037588;28;20201;-84
2022/05/26 04:04:50;;;;;;;0.13;0.13;;;14.90;99.90;;;;;;5040895;28;20187;-83
2022/05/26 04:07:16;;;;;;;0.20;0.20;;;16.10;99.90;;;;;;5035102;28;20692;-84
2022/05/26 04:09:41;;;;;;;0.40;0.20;;;17.50;99.90;;;;;;5040114;28;20194;-83
2022/05/26 04:12:09;;;;;;;0.10;0.10;;;18.40;99.90;;;;;;5041209;28;20196;-84
2022/05/26 04:14:35;;;;;;;0.20;0.20;;;19.10;99.90;;;;;;5039923;28;20558;-84
2022/05/26 04:17:01;;;;;;;0.20;0.20;;;18.80;99.90;;;;;;5059255;28;20197;-84
2022/05/26 04:19:27;;;;;;;1.00;0.20;;;18.50;99.90;;;;;;5040725;28;20338;-82
2022/05/26 04:24:37;;;;;;;0.10;0.10;;;17.90;99.90;;;;;;5056897;28;20571;-81
2022/05/26 04:27:04;;;;;;;0.10;0.10;;;17.70;99.90;;;;;;5039870;28;20655;-81
2022/05/26 04:29:30;;;;;;;0.10;0.10;;;17.50;99.90;;;;;;5058103;28;20181;-81
2022/05/26 04:31:56;;;;;;;0.10;0.10;;;17.30;99.90;;;;;;5042009;28;20186;-81
2022/05/26 04:34:21;;;;;;;0.20;0.20;;;17.20;99.90;;;;;;5057506;28;20673;-81
2022/05/26 04:36:47;;;;;;;0.00;0.00;;;17.20;99.90;;;;;;5041549;28;20205;-81
2022/05/26 04:39:14;;;;;;;0.50;0.20;;;17.10;99.90;;;;;;5037407;28;20205;-80
2022/05/26 04:41:42;;;;;;;0.20;0.10;;;16.90;99.90;;;;;;5038133;28;20239;-81
2022/05/26 04:44:08;;;;;;;0.20;0.20;;;16.80;99.90;;;;;;5057954;28;20181;-81
2022/05/26 04:46:35;;;;;;;0.10;0.10;;;16.60;99.90;;;;;;5041319;28;20211;-81
2022/05/26 04:49:00;;;;;;;0.10;0.10;;;16.60;99.90;;;;;;5056299;28;20206;-81
2022/05/26 04:51:26;;;;;;;0.10;0.10;;;16.50;99.90;;;;;;5039235;28;20204;-81
2022/05/26 04:53:51;;;;;;;0.10;0.10;;;16.50;99.90;;;;;;5058208;28;20598;-81
2022/05/26 04:56:17;;;;;;;0.20;0.20;;;16.40;99.90;;;;;;5038972;28;20654;-81
2022/05/26 04:58:42;;;;;;;1.93;0.40;;;16.30;99.90;;;;;;5073972;28;20204;-81
2022/05/26 05:01:16;;;;;;;0.10;0.10;;;16.30;99.90;;;;;;5041263;28;20177;-81
2022/05/26 05:03:41;;;;;;;0.23;0.23;;;16.20;99.90;;;;;;5058591;28;20203;-81
2022/05/26 05:06:07;;;;;;;0.10;0.10;;;16.20;99.90;;;;;;5041301;28;20240;-81
2022/05/26 05:08:33;;;;;;;0.10;0.10;;;16.20;99.90;;;;;;5036636;28;20644;-81
2022/05/26 05:10:59;;;;;;;0.13;0.13;;;16.40;99.90;;;;;;5052258;28;20195;-81
2022/05/26 05:13:24;;;;;;;0.57;0.53;;;16.40;99.90;;;;;;5054470;28;20186;-80
2022/05/26 05:16:03;;;;;;;0.10;0.10;;;16.50;99.90;;;;;;5054954;28;20286;-79
2022/05/26 05:18:29;;;;;;;0.10;0.10;;;16.70;99.90;;;;;;5054359;28;20319;-79
2022/05/26 05:20:59;;;;;;;0.20;0.20;;;16.80;99.90;;;;;;5053018;28;20590;-80
2022/05/26 05:23:26;;;;;;;0.20;0.20;;;16.80;99.90;;;;;;5038497;28;20284;-80
2022/05/26 05:25:54;;;;;;;0.27;0.27;;;16.80;99.90;;;;;;5032635;28;20191;-80
2022/05/26 05:28:28;;;;;;;0.20;0.20;;;17.00;99.90;;;;;;5054520;28;20213;-81
2022/05/26 05:31:01;;;;;;;0.30;0.30;;;17.10;99.90;;;;;;5039719;28;20539;-80
2022/05/26 05:33:34;;;;;;;0.30;0.30;;;17.00;99.90;;;;;;5039382;28;20798;-80
2022/05/26 05:36:20;;;;;;;0.20;0.20;;;17.20;99.90;;;;;;5038482;28;20665;-80
2022/05/26 05:38:46;;;;;;;0.10;0.10;;;17.20;99.90;;;;;;5040887;28;20208;-81
2022/05/26 05:41:12;;;;;;;0.00;0.00;;;17.20;99.90;;;;;;5035596;28;20241;-81
2022/05/26 05:43:39;;;;;;;0.20;0.20;;;17.10;99.90;;;;;;5039063;28;20212;-80
2022/05/26 05:46:06;;;;;;;0.10;0.10;;;17.20;99.90;;;;;;5057091;28;20184;-80
2022/05/26 05:48:32;;;;;;;0.13;0.13;;;17.30;99.90;;;;;;5056105;28;20205;-81
2022/05/26 05:50:57;;;;;;;0.20;0.20;;;17.40;99.90;;;;;;5039161;28;20195;-80
2022/05/26 05:53:23;;;;;;;0.10;0.10;;;17.30;99.90;;;;;;5039322;28;20208;-80
2022/05/26 05:55:49;;;;;;;0.10;0.10;;;17.50;99.90;;;;;;5056250;28;20196;-81
2022/05/26 05:58:14;;;;;;;0.10;0.10;;;17.60;99.90;;;;;;5037444;28;20216;-80
2022/05/26 06:00:41;;;;;;;0.10;0.10;;;17.60;99.90;;;;;;5041063;28;20197;-80
2022/05/26 06:03:08;;;;;;;0.10;0.10;;;17.60;99.90;;;;;;5054097;28;20210;-80
2022/05/26 06:05:34;;;;;;;0.40;0.40;;;17.60;99.90;;;;;;5038600;28;20185;-80
2022/05/26 06:08:00;;;;;;;0.10;0.10;;;17.70;99.90;;;;;;5039469;28;20312;-80
2022/05/26 06:10:26;;;;;;;0.20;0.20;;;17.80;99.90;;;;;;5056857;28;20246;-81
2022/05/26 06:12:52;;;;;;;0.70;0.50;;;17.90;99.90;;;;;;5052691;28;20619;-80
2022/05/26 06:15:18;;;;;;;0.13;0.13;;;18.00;99.90;;;;;;5038104;28;20335;-80
2022/05/26 06:17:43;;;;;;;0.47;0.30;;;18.00;99.90;;;;;;5056438;28;20221;-81
2022/05/26 06:20:11;;;;;;;0.20;0.20;;;18.10;99.90;;;;;;5038699;28;20204;-80
2022/05/26 06:22:40;;;;;;;0.10;0.10;;;18.20;99.90;;;;;;5035114;28;20201;-81
2022/05/26 06:25:07;;;;;;;0.10;0.10;;;18.20;99.90;;;;;;5047756;28;20169;-80
2022/05/26 06:30:20;;;;;;;0.10;0.10;;;18.10;99.90;;;;;;5056881;28;20188;-80
2022/05/26 06:38:23;;;;;;;0.10;0.10;;;18.30;99.90;;;;;;5057931;28;20216;-81
2022/05/26 06:40:49;;;;;;;0.10;0.10;;;18.40;99.90;;;;;;5037783;28;20241;-81
2022/05/26 06:43:16;;;;;;;1.87;0.30;;;18.60;99.90;;;;;;5039087;28;20216;-80
2022/05/26 06:45:44;;;;;;;0.20;0.20;;;18.70;99.90;;;;;;5039566;28;20209;-80
2022/05/26 06:48:09;;;;;;;0.10;0.10;;;18.70;99.90;;;;;;5038865;28;20213;-81
2022/05/26 06:50:35;;;;;;;0.10;0.10;;;18.60;99.90;;;;;;5056942;28;20187;-80
2022/05/26 06:53:01;;;;;;;0.33;0.33;;;18.70;99.90;;;;;;5058421;28;20258;-81
2022/05/26 06:55:27;;;;;;;0.10;0.10;;;18.80;99.90;;;;;;5055514;28;20190;-81
2022/05/26 06:57:53;;;;;;;0.20;0.20;;;19.00;99.90;;;;;;5040074;28;20214;-81
2022/05/26 07:00:19;;;;;;;0.30;0.20;;;19.20;99.90;;;;;;5039877;28;20572;-81
2022/05/26 07:02:45;;;;;;;0.77;0.30;;;19.20;99.90;;;;;;5038388;28;20229;-81
2022/05/26 07:05:11;;;;;;;0.30;0.30;;;19.30;99.90;;;;;;5038716;28;20185;-80
2022/05/26 07:07:38;;;;;;;0.10;0.10;;;19.30;99.90;;;;;;5037396;28;20201;-81
2022/05/26 07:10:05;;;;;;;0.10;0.10;;;19.30;99.90;;;;;;5034309;28;20198;-80
2022/05/26 07:12:30;;;;;;;0.10;0.10;;;19.50;99.90;;;;;;5036249;28;20276;-80
2022/05/26 07:14:56;;;;;;;0.10;0.10;;;19.60;99.90;;;;;;5034790;28;20200;-81
2022/05/26 07:17:21;;;;;;;0.30;0.30;;;19.60;99.90;;;;;;5034660;28;20263;-81
2022/05/26 07:19:48;;;;;;;0.23;0.20;;;19.80;99.90;;;;;;5053535;28;20556;-81
2022/05/26 07:22:13;;;;;;;0.53;0.40;;;19.90;99.90;;;;;;5054400;28;20747;-81
2022/05/26 07:24:40;;;;;;;0.10;0.10;;;20.10;99.90;;;;;;5033676;28;20294;-80
2022/05/26 07:27:06;;;;;;;0.43;0.43;;;20.20;99.90;;;;;;5050419;28;20211;-80
2022/05/26 07:29:32;;;;;;;0.13;0.13;;;20.10;99.90;;;;;;5052584;28;20213;-79
2022/05/26 07:31:59;;;;;;;0.30;0.20;;;20.00;99.90;;;;;;5032213;28;20183;-81
2022/05/26 07:34:25;;;;;;;0.33;0.33;;;19.90;99.90;;;;;;5053143;28;20235;-81
2022/05/26 07:42:22;;;;;;;0.23;0.23;;;20.40;99.90;;;;;;5053176;28;20239;-81
2022/05/26 07:44:50;;;;;;;0.10;0.10;;;20.40;99.90;;;;;;5034845;28;20186;-81
2022/05/26 07:47:16;;;;;;;0.10;0.10;;;20.40;99.90;;;;;;5053999;28;20577;-80
2022/05/26 07:49:45;;;;;;;0.10;0.10;;;20.50;99.90;;;;;;5036156;28;20591;-80
2022/05/26 07:52:11;;;;;;;0.20;0.20;;;20.70;99.90;;;;;;5036369;28;20402;-80
2022/05/26 07:54:38;;;;;;;0.20;0.20;;;20.50;99.90;;;;;;5052425;28;20854;-80
2022/05/26 07:57:04;;;;;;;0.17;0.17;;;20.60;99.90;;;;;;5035703;28;20661;-80
2022/05/26 07:59:30;;;;;;;2.93;0.30;;;20.70;99.90;;;;;;5050500;28;20223;-80
2022/05/26 08:01:56;;;;;;;0.10;0.10;;;20.40;99.90;;;;;;5035476;28;20205;-80
2022/05/26 08:04:22;;;;;;;0.30;0.30;;;20.20;99.90;;;;;;5052384;28;21000;-80
2022/05/26 08:06:48;;;;;;;1.90;1.50;;;20.20;99.90;;;;;;5066949;28;20190;-80
2022/05/26 08:09:16;;;;;;;0.60;0.53;;;20.20;99.90;;;;;;5032870;28;20215;-80
2022/05/26 08:11:42;;;;;;;0.53;0.53;;;20.00;99.90;;;;;;5036497;28;20180;-80
2022/05/26 08:14:09;;;;;;;0.27;0.23;;;19.90;99.90;;;;;;5034609;28;20190;-78
2022/05/26 08:16:35;;;;;;;0.10;0.10;;;20.20;99.90;;;;;;5050858;28;20177;-78
2022/05/26 08:19:01;;;;;;;0.10;0.10;;;20.10;99.90;;;;;;5031868;28;20694;-78
2022/05/26 08:21:26;;;;;;;0.10;0.10;;;20.50;99.90;;;;;;5048859;28;20177;-78
2022/05/26 08:23:53;;;;;;;0.40;0.40;;;20.90;99.90;;;;;;5035392;28;20204;-78
2022/05/26 08:26:19;;;;;;;0.30;0.30;;;21.10;99.90;;;;;;5031300;28;20619;-77
2022/05/26 08:28:44;;;;;;;0.10;0.10;;;21.10;99.90;;;;;;5050928;28;20209;-78
2022/05/26 08:31:13;;;;;;;0.20;0.20;;;21.10;99.90;;;;;;5031504;28;20191;-78
2022/05/26 08:33:38;;;;;;;0.40;0.40;;;21.00;99.90;;;;;;5051943;28;20822;-78
2022/05/26 08:36:10;;;;;;;0.20;0.20;;;21.10;99.90;;;;;;5048597;28;20196;-80
2022/05/26 08:38:36;;;;;;;0.20;0.20;;;21.30;99.90;;;;;;5052310;28;20264;-80
2022/05/26 08:41:03;;;;;;;0.20;0.20;;;21.50;99.90;;;;;;5064989;28;20209;-78
2022/05/26 08:43:42;;;;;;;0.10;0.10;;;21.70;99.90;;;;;;5030380;28;20813;-79
2022/05/26 08:46:13;;;;;;;0.10;0.10;;;21.70;99.90;;;;;;5054868;28;20200;-78
2022/05/26 08:48:45;;;;;;;0.10;0.10;;;21.60;99.90;;;;;;5054954;28;20689;-78
2022/05/26 08:51:15;;;;;;;0.10;0.10;;;21.50;99.90;;;;;;5069007;28;20207;-78
2022/05/26 08:53:41;;;;;;;0.10;0.10;;;21.30;99.90;;;;;;5038618;28;20253;-78
2022/05/26 08:56:11;;;;;;;0.30;0.30;;;21.40;99.90;;;;;;5064002;28;20193;-80
2022/05/26 08:58:46;;;;;;;1.03;0.20;;;21.30;99.90;;;;;;5049137;28;20210;-80
2022/05/26 09:01:17;;;;;;;0.30;0.30;;;21.30;99.90;;;;;;5068463;28;20173;-82
2022/05/26 09:03:43;;;;;;;0.20;0.20;;;21.40;99.90;;;;;;5047642;28;21286;-80
2022/05/26 09:06:14;;;;;;;0.20;0.20;;;21.50;99.90;;;;;;5044305;28;20292;-82
2022/05/26 09:14:29;;;;;;;0.10;0.10;;;21.50;99.90;;;;;;5058833;28;20178;-80
2022/05/26 09:16:57;;;;;;;0.20;0.20;;;21.30;99.90;;;;;;5057615;28;20184;-80
2022/05/26 09:19:23;;;;;;;0.10;0.10;;;21.50;99.90;;;;;;5038407;28;20194;-82
2022/05/26 09:21:51;;;;;;;0.20;0.20;;;21.50;99.90;;;;;;5038131;28;20197;-82
2022/05/26 09:24:34;;;;;;;0.30;0.30;;;21.50;99.90;;;;;;5040041;28;20190;-82
2022/05/26 09:27:03;;;;;;;0.17;0.17;;;21.40;99.90;;;;;;5057127;28;20194;-80
2022/05/26 09:29:35;;;;;;;0.30;0.30;;;21.30;99.90;;;;;;5057678;28;20217;-80
2022/05/26 09:32:02;;;;;;;0.50;0.20;;;21.30;99.90;;;;;;5038167;28;20210;-81
2022/05/26 09:34:32;;;;;;;0.20;0.20;;;21.50;99.90;;;;;;5057858;28;20189;-82
2022/05/26 09:37:03;;;;;;;0.27;0.27;;;21.60;99.90;;;;;;5040203;28;20190;-80
2022/05/26 09:39:42;;;;;;;0.23;0.23;;;21.40;99.90;;;;;;5056532;28;20188;-82
2022/05/26 09:42:14;;;;;;;0.30;0.30;;;21.20;99.90;;;;;;5059666;28;20254;-80
2022/05/26 09:44:46;;;;;;;0.10;0.10;;;21.10;99.90;;;;;;5041692;28;20209;-80
2022/05/26 09:47:20;;;;;;;0.10;0.10;;;21.00;99.90;;;;;;5055363;28;20197;-81
2022/05/26 09:49:49;;;;;;;0.50;0.30;;;21.10;99.90;;;;;;5056408;28;20187;-82
2022/05/26 09:52:17;;;;;;;0.20;0.20;;;21.20;99.90;;;;;;5056802;28;20185;-80
2022/05/26 09:54:45;;;;;;;0.10;0.10;;;21.20;99.90;;;;;;5055441;28;20247;-80
2022/05/26 09:57:24;;;;;;;0.10;0.10;;;21.30;99.90;;;;;;5057737;28;20690;-80
2022/05/26 09:59:49;;;;;;;0.17;0.17;;;21.30;99.90;;;;;;5051963;28;20399;-78
2022/05/26 10:02:33;;;;;;;0.20;0.20;;;21.30;99.90;;;;;;5052524;28;20220;-78
2022/05/26 10:05:37;;;;;;;0.40;0.37;;;21.60;99.90;;;;;;5054615;28;20268;-78
2022/05/26 10:08:18;;;;;;;0.10;0.10;;;21.80;99.90;;;;;;5036671;28;20209;-81
2022/05/26 10:10:59;;;;;;;0.20;0.20;;;22.80;99.90;;;;;;5051209;28;20181;-78
2022/05/26 10:13:36;;;;;;;0.23;0.23;;;23.10;99.90;;;;;;5052407;28;20177;-78
2022/05/26 10:16:40;;;;;;;0.27;0.27;;;22.80;99.90;;;;;;5050068;28;20706;-81
2022/05/26 10:19:19;;;;;;;0.20;0.20;;;22.90;99.90;;;;;;5046037;28;20736;-78
2022/05/26 10:22:47;;;;;;;0.37;0.37;;;23.10;99.90;;;;;;5032547;28;20197;-78
2022/05/26 10:25:51;;;;;;;0.20;0.20;;;22.80;99.90;;;;;;4957895;28;20183;-78
2022/05/26 10:28:32;;;;;;;0.20;0.20;;;22.40;99.90;;;;;;4973805;28;20246;-78
2022/05/26 10:31:37;;;;;;;0.20;0.20;;;22.50;99.90;;;;;;5024281;28;20288;-81
2022/05/26 10:34:11;;;;;;;0.63;0.30;;;22.70;99.90;;;;;;5023650;28;21221;-80
2022/05/26 10:36:48;;;;;;;0.63;0.60;;;22.60;99.90;;;;;;5053541;28;20182;-79
2022/05/26 10:39:25;;;;;;;0.30;0.20;;;22.50;99.90;;;;;;5050293;28;20207;-79
2022/05/26 10:41:55;;;;;;;0.40;0.27;;;22.30;99.90;;;;;;5051452;28;20291;-79
2022/05/26 10:44:34;;;;;;;0.30;0.30;;;22.20;99.90;;;;;;5051080;28;20200;-78
2022/05/26 10:47:11;;;;;;;0.20;0.20;;;22.00;99.90;;;;;;5047728;28;20749;-78
2022/05/26 10:49:53;;;;;;;0.30;0.30;;;22.00;99.90;;;;;;5066195;28;20181;-78
2022/05/26 10:52:24;;;;;;;0.40;0.40;;;22.00;99.90;;;;;;5032736;28;20177;-78
2022/05/26 10:55:11;;;;;;;0.10;0.10;;;22.10;99.90;;;;;;5049561;28;20769;-78
2022/05/26 10:57:53;;;;;;;0.20;0.20;;;22.10;99.90;;;;;;5031934;28;20205;-78
2022/05/26 11:00:27;;;;;;;0.40;0.40;;;22.10;99.90;;;;;;5051201;28;20236;-79
2022/05/26 11:03:08;;;;;;;0.10;0.10;;;22.20;99.90;;;;;;5051500;28;20192;-78
2022/05/26 11:05:58;;;;;;;0.20;0.20;;;21.80;99.90;;;;;;5033484;28;20179;-78
2022/05/26 11:08:34;;;;;;;0.20;0.20;;;22.00;99.90;;;;;;5050490;28;20221;-78
2022/05/26 11:11:34;;;;;;;0.33;0.33;;;22.40;99.90;;;;;;5050910;28;20212;-78
2022/05/26 11:17:39;;;;;;;0.20;0.20;;;22.90;99.90;;;;;;5049505;28;20214;-78
2022/05/26 11:20:12;;;;;;;0.10;0.10;;;23.10;99.90;;;;;;5014437;28;20197;-78
2022/05/26 11:22:41;;;;;;;1.10;0.30;;;23.90;99.90;;;;;;5048908;28;20201;-79
2022/05/26 11:25:07;;;;;;;0.20;0.20;;;24.30;99.90;;;;;;5050300;28;20173;-81
2022/05/26 11:27:48;;;;;;;0.20;0.20;;;24.50;99.90;;;;;;5051424;28;20667;-80
2022/05/26 11:36:28;;;;;;;0.20;0.20;;;25.30;99.90;;;;;;5053144;28;20239;-80
2022/05/26 11:38:53;;;;;;;0.73;0.30;;;25.40;99.90;;;;;;5052828;28;20301;-81
2022/05/26 11:41:35;;;;;;;0.20;0.20;;;25.40;99.90;;;;;;5036052;28;20992;-81
2022/05/26 11:44:08;;;;;;;0.20;0.20;;;25.30;99.90;;;;;;5034934;28;20201;-80
2022/05/26 11:46:45;;;;;;;0.23;0.23;;;25.10;99.90;;;;;;5035207;28;20227;-81
2022/05/26 11:49:30;;;;;;;0.30;0.30;;;24.80;99.90;;;;;;5038551;28;20197;-81
2022/05/26 11:51:56;;;;;;;0.20;0.20;;;24.70;99.90;;;;;;5052994;28;20208;-81
2022/05/26 11:54:52;;;;;;;0.20;0.20;;;24.60;99.90;;;;;;5056608;28;20658;-81
2022/05/26 11:57:35;;;;;;;0.40;0.40;;;24.60;99.90;;;;;;5036568;28;20704;-81
2022/05/26 12:00:41;;;;;;;0.40;0.40;;;24.90;99.90;;;;;;5055061;28;20641;-80
2022/05/26 12:03:26;;;;;;;0.20;0.20;;;24.60;99.90;;;;;;5054128;28;20201;-81
2022/05/26 12:06:12;;;;;;;0.33;0.30;;;24.50;99.90;;;;;;5036255;28;20192;-81
2022/05/26 12:08:45;;;;;;;0.10;0.10;;;24.60;99.90;;;;;;5053922;28;20845;-80
2022/05/26 12:11:14;;;;;;;0.20;0.20;;;24.70;99.90;;;;;;5035525;28;20270;-80
2022/05/26 12:13:41;;;;;;;0.10;0.10;;;24.60;99.90;;;;;;5040135;28;20211;-83
2022/05/26 12:16:15;;;;;;;1.60;0.57;;;24.50;99.90;;;;;;5040159;28;20201;-83
2022/05/26 12:19:04;;;;;;;0.20;0.20;;;24.30;99.90;;;;;;5054088;28;20210;-81
2022/05/26 12:21:30;;;;;;;1.17;1.10;;;24.60;99.90;;;;;;5037966;28;20190;-81
2022/05/26 12:23:58;;;;;;;0.27;0.27;;;24.40;99.90;;;;;;5036715;28;20561;-80
2022/05/26 12:26:34;;;;;;;0.20;0.20;;;23.90;99.90;;;;;;5056445;28;20174;-80
2022/05/26 12:29:37;;;;;;;0.30;0.30;;;24.30;99.90;;;;;;5056680;28;20283;-81
2022/05/26 12:32:28;;;;;;;0.27;0.20;;;24.50;99.90;;;;;;5056703;28;20196;-81
2022/05/26 12:35:14;;;;;;;0.40;0.40;;;24.30;99.90;;;;;;5058395;28;20244;-81
2022/05/26 12:38:16;;;;;;;0.20;0.20;;;24.20;99.90;;;;;;5055859;28;20200;-81
2022/05/26 12:41:01;;;;;;;0.50;0.50;;;24.50;99.90;;;;;;5036128;28;20227;-81
2022/05/26 12:43:49;;;;;;;0.83;0.80;;;24.60;99.90;;;;;;5057722;28;20901;-81
2022/05/26 12:46:44;;;;;;;0.30;0.20;;;24.90;99.90;;;;;;5039338;28;20276;-80
2022/05/26 12:49:47;;;;;;;0.20;0.20;;;24.60;99.90;;;;;;5056178;28;20208;-81
2022/05/26 12:52:24;;;;;;;0.23;0.23;;;24.70;99.90;;;;;;5041236;28;20185;-80
2022/05/26 12:55:10;;;;;;;0.27;0.20;;;24.60;99.90;;;;;;5072490;28;20587;-81
2022/05/26 12:57:39;;;;;;;1.17;0.27;;;24.50;99.90;;;;;;5053669;28;20220;-81
2022/05/26 13:00:43;;;;;;;0.27;0.27;;;24.50;99.90;;;;;;5058841;28;20267;-80
2022/05/26 13:03:27;;;;;;;0.17;0.17;;;24.60;99.90;;;;;;5056722;28;20208;-81
2022/05/26 13:06:01;;;;;;;0.20;0.20;;;24.30;99.90;;;;;;5042652;28;20178;-81
2022/05/26 13:08:35;;;;;;;0.30;0.30;;;24.20;99.90;;;;;;5057064;28;20872;-80
2022/05/26 13:11:03;;;;;;;0.43;0.23;;;24.00;99.90;;;;;;5056023;28;20189;-79
2022/05/26 13:13:41;;;;;;;0.13;0.13;;;24.00;99.90;;;;;;5037529;28;20185;-81
2022/05/26 13:16:20;;;;;;;0.50;0.50;;;24.10;99.90;;;;;;5040046;28;20191;-81
2022/05/26 13:18:45;;;;;;;0.20;0.20;;;24.10;99.90;;;;;;5039151;28;20327;-81
2022/05/26 13:21:16;;;;;;;0.23;0.23;;;24.10;99.90;;;;;;5039255;28;20264;-81
2022/05/26 13:23:41;;;;;;;0.20;0.20;;;24.70;99.90;;;;;;5056679;28;20202;-81
2022/05/26 13:26:07;;;;;;;0.20;0.20;;;25.00;99.90;;;;;;5054695;28;20188;-81
2022/05/26 13:28:35;;;;;;;0.20;0.20;;;24.70;99.90;;;;;;5071057;28;20204;-81
2022/05/26 13:33:48;;;;;;;0.20;0.20;;;24.40;99.90;;;;;;5056256;28;20284;-81
2022/05/26 13:36:24;;;;;;;0.30;0.30;;;24.40;99.90;;;;;;5056939;28;20556;-81
2022/05/26 13:38:50;;;;;;;0.20;0.20;;;24.30;99.90;;;;;;5055788;28;20213;-81
2022/05/26 13:41:20;;;;;;;0.30;0.30;;;24.30;99.90;;;;;;5037521;28;20207;-81
2022/05/26 13:43:48;;;;;;;4.03;0.40;;;24.40;99.90;;;;;;5038300;28;20205;-81
2022/05/26 13:46:35;;;;;;;0.20;0.20;;;24.50;99.90;;;;;;5039149;28;20193;-80
2022/05/26 13:49:32;;;;;;;0.20;0.20;;;24.30;99.90;;;;;;5035774;28;20205;-81
2022/05/26 13:52:00;;;;;;;0.20;0.20;;;24.10;99.90;;;;;;5055970;28;20737;-81
2022/05/26 13:54:40;;;;;;;0.40;0.40;;;24.10;99.90;;;;;;5056294;28;20654;-81
2022/05/26 13:57:27;;;;;;;0.10;0.10;;;24.10;99.90;;;;;;5056384;28;20264;-81
2022/05/26 14:00:03;;;;;;;2.63;0.50;;;24.20;99.90;;;;;;5040372;28;20263;-81